createdAt,value
2019-02-26T00:00:20.168Z,77.80
2019-02-26T00:02:48.605Z,77.92
2019-02-26T00:05:17.317Z,77.97
2019-02-26T00:07:44.418Z,77.80
2019-02-26T00:10:10.586Z,78.22
2019-02-26T00:12:37.010Z,78.20
2019-02-26T00:15:07.425Z,78.02
2019-02-26T00:17:38.546Z,78.18
2019-02-26T00:20:05.597Z,78.06
2019-02-26T00:22:32.392Z,78.15
2019-02-26T00:25:01.009Z,78.26
2019-02-26T00:27:30.110Z,78.54
2019-02-26T00:29:56.032Z,78.43
2019-02-26T00:32:22.604Z,78.35
2019-02-26T00:34:49.176Z,78.83
2019-02-26T00:37:15.578Z,78.79
2019-02-26T00:43:06.555Z,78.74
2019-02-26T00:45:34.066Z,78.71
2019-02-26T00:48:01.588Z,78.87
2019-02-26T00:50:28.502Z,78.82
2019-02-26T00:52:57.101Z,78.85
2019-02-26T00:55:27.313Z,78.67
2019-02-26T00:57:52.399Z,78.80
2019-02-26T01:00:18.895Z,78.71
2019-02-26T01:02:45.441Z,78.55
2019-02-26T01:05:15.709Z,78.63
2019-02-26T01:07:44.912Z,79.11
2019-02-26T01:10:13.401Z,79.13
2019-02-26T01:12:40.304Z,79.28
2019-02-26T01:15:17.446Z,79.16
2019-02-26T01:17:44.443Z,79.47
2019-02-26T01:20:13.208Z,79.54
2019-02-26T01:22:40.237Z,79.24
2019-02-26T01:25:10.290Z,79.53
2019-02-26T01:27:37.251Z,79.70
2019-02-26T01:30:07.185Z,79.71
2019-02-26T01:32:33.452Z,79.90
2019-02-26T01:35:00.876Z,79.71
2019-02-26T01:37:29.894Z,79.43
2019-02-26T01:39:56.503Z,79.54
2019-02-26T01:42:24.875Z,79.78
2019-02-26T01:44:51.250Z,79.93
2019-02-26T01:47:19.484Z,80.09
2019-02-26T01:49:46.442Z,80.12
2019-02-26T01:52:15.094Z,80.61
2019-02-26T01:54:42.531Z,80.73
2019-02-26T01:57:09.273Z,80.89
2019-02-26T01:59:36.007Z,80.98
2019-02-26T02:02:02.451Z,81.06
2019-02-26T02:04:28.830Z,81.14
2019-02-26T02:07:01.847Z,81.35
2019-02-26T02:09:29.203Z,81.79
2019-02-26T02:11:57.424Z,82.03
2019-02-26T02:14:23.781Z,81.94
2019-02-26T02:16:50.205Z,82.07
2019-02-26T02:19:20.116Z,82.31
2019-02-26T02:21:46.898Z,82.18
2019-02-26T02:24:15.566Z,82.34
2019-02-26T02:26:45.329Z,82.12
2019-02-26T02:29:12.666Z,82.24
2019-02-26T02:31:38.236Z,82.34
2019-02-26T02:34:06.245Z,82.54
2019-02-26T02:36:32.767Z,82.26
2019-02-26T02:38:59.225Z,82.46
2019-02-26T02:41:25.644Z,82.67
2019-02-26T02:43:51.976Z,82.86
2019-02-26T02:46:18.245Z,82.83
2019-02-26T02:48:44.677Z,82.80
2019-02-26T02:51:13.894Z,82.94
2019-02-26T02:53:40.108Z,82.89
2019-02-26T02:56:09.201Z,82.79
2019-02-26T02:58:35.032Z,83.11
2019-02-26T03:01:01.503Z,83.49
2019-02-26T03:03:40.994Z,83.63
2019-02-26T03:06:10.384Z,83.67
2019-02-26T03:08:39.308Z,83.90
2019-02-26T03:11:06.400Z,83.93
2019-02-26T03:13:32.663Z,83.79
2019-02-26T03:16:01.443Z,83.74
2019-02-26T03:18:27.315Z,84.02
2019-02-26T03:20:54.634Z,84.06
2019-02-26T03:23:21.633Z,84.06
2019-02-26T03:25:50.345Z,83.92
2019-02-26T03:28:16.326Z,84.10
2019-02-26T03:30:44.237Z,84.00
2019-02-26T03:33:11.017Z,83.80
2019-02-26T03:35:37.217Z,83.88
2019-02-26T03:38:03.730Z,83.77
2019-02-26T03:40:33.023Z,83.80
2019-02-26T03:42:58.408Z,83.90
2019-02-26T03:45:25.266Z,83.64
2019-02-26T03:47:51.498Z,83.60
2019-02-26T03:50:18.277Z,83.77
2019-02-26T03:52:45.020Z,83.60
2019-02-26T03:55:14.127Z,83.70
2019-02-26T03:57:43.642Z,83.94
2019-02-26T04:00:14.123Z,83.95
2019-02-26T04:02:43.338Z,83.51
2019-02-26T04:08:33.103Z,83.89
2019-02-26T04:11:01.908Z,83.92
2019-02-26T04:13:27.522Z,83.69
2019-02-26T04:15:56.338Z,83.69
2019-02-26T04:18:22.321Z,83.83
2019-02-26T04:20:48.857Z,84.10
2019-02-26T04:23:18.717Z,84.16
2019-02-26T04:25:54.171Z,83.91
2019-02-26T04:28:27.255Z,84.26
2019-02-26T04:30:59.706Z,84.03
2019-02-26T04:33:30.772Z,84.24
2019-02-26T04:36:02.089Z,83.95
2019-02-26T04:39:07.653Z,83.86
2019-02-26T04:42:16.833Z,85.19
2019-02-26T04:45:09.349Z,79.23
2019-02-26T04:47:51.850Z,79.42
2019-02-26T04:50:17.625Z,81.83
2019-02-26T04:52:43.831Z,82.89
2019-02-26T04:55:10.451Z,83.84
2019-02-26T04:57:39.420Z,84.31
2019-02-26T05:00:09.899Z,84.69
2019-02-26T05:02:35.557Z,84.37
2019-02-26T05:05:02.239Z,84.52
2019-02-26T05:07:28.582Z,84.71
2019-02-26T05:09:56.850Z,84.78
2019-02-26T05:12:25.247Z,84.79
2019-02-26T05:14:51.486Z,84.85
2019-02-26T05:17:19.062Z,84.85
2019-02-26T05:19:48.423Z,85.16
2019-02-26T05:22:22.709Z,85.14
2019-02-26T05:24:50.283Z,84.88
2019-02-26T05:27:19.718Z,84.73
2019-02-26T05:29:46.655Z,84.71
2019-02-26T05:32:13.330Z,85.05
2019-02-26T05:34:40.827Z,84.55
2019-02-26T05:37:10.969Z,84.49
2019-02-26T05:39:36.480Z,84.67
2019-02-26T05:42:04.097Z,84.72
2019-02-26T05:44:31.193Z,84.71
2019-02-26T05:46:58.883Z,84.92
2019-02-26T05:49:25.780Z,84.89
2019-02-26T05:51:53.516Z,84.67
2019-02-26T05:54:21.724Z,84.85
2019-02-26T05:56:49.747Z,84.93
2019-02-26T05:59:17.964Z,84.98
2019-02-26T06:01:46.538Z,84.92
2019-02-26T06:04:14.879Z,85.44
2019-02-26T06:06:41.129Z,85.43
2019-02-26T06:09:07.785Z,85.51
2019-02-26T06:11:38.599Z,85.22
2019-02-26T06:14:06.610Z,85.72
2019-02-26T06:16:31.490Z,85.56
2019-02-26T06:18:58.551Z,85.94
2019-02-26T06:21:26.051Z,85.54
2019-02-26T06:23:53.851Z,85.68
2019-02-26T06:26:20.476Z,86.19
2019-02-26T06:28:54.611Z,86.35
2019-02-26T06:31:22.100Z,86.24
2019-02-26T06:33:50.719Z,86.60
2019-02-26T06:36:18.444Z,86.22
2019-02-26T06:38:49.325Z,86.16
2019-02-26T06:41:13.980Z,86.16
2019-02-26T06:43:42.772Z,85.76
2019-02-26T06:46:09.821Z,85.67
2019-02-26T06:48:36.885Z,86.02
2019-02-26T06:51:04.699Z,86.17
2019-02-26T06:53:31.391Z,85.92
2019-02-26T06:55:58.547Z,86.14
2019-02-26T06:58:26.427Z,86.30
2019-02-26T07:00:55.499Z,86.37
2019-02-26T07:03:24.239Z,86.21
2019-02-26T07:05:50.033Z,86.22
2019-02-26T07:08:16.675Z,86.15
2019-02-26T07:10:43.606Z,86.17
2019-02-26T07:13:11.830Z,85.91
2019-02-26T07:15:38.385Z,86.48
2019-02-26T07:18:07.219Z,85.95
2019-02-26T07:20:34.319Z,87.69
2019-02-26T07:23:03.409Z,85.89
2019-02-26T07:25:31.779Z,85.92
2019-02-26T07:28:02.905Z,86.27
2019-02-26T07:30:29.915Z,86.04
2019-02-26T07:32:56.289Z,84.86
2019-02-26T07:35:22.589Z,84.23
2019-02-26T07:37:59.477Z,84.60
2019-02-26T07:40:28.458Z,85.40
2019-02-26T07:42:54.694Z,85.39
2019-02-26T07:45:22.863Z,85.19
2019-02-26T07:47:51.465Z,85.83
2019-02-26T07:50:17.728Z,85.94
2019-02-26T07:52:44.434Z,86.11
2019-02-26T07:55:12.135Z,85.80
2019-02-26T07:57:40.545Z,86.24
2019-02-26T08:00:16.565Z,86.48
2019-02-26T08:02:42.938Z,86.75
2019-02-26T08:05:10.371Z,86.84
2019-02-26T08:07:37.003Z,86.56
2019-02-26T08:10:16.974Z,86.75
2019-02-26T08:12:44.105Z,86.40
2019-02-26T08:15:15.448Z,86.35
2019-02-26T08:17:45.642Z,86.59
2019-02-26T08:20:14.308Z,86.81
2019-02-26T08:22:40.242Z,85.54
2019-02-26T08:25:34.407Z,85.62
2019-02-26T08:28:01.376Z,85.57
2019-02-26T08:30:27.901Z,84.97
2019-02-26T08:32:56.097Z,84.95
2019-02-26T08:35:23.046Z,85.53
2019-02-26T08:37:49.632Z,84.66
2019-02-26T08:40:16.098Z,83.62
2019-02-26T08:42:42.536Z,84.44
2019-02-26T08:45:12.489Z,83.71
2019-02-26T08:47:39.898Z,83.34
2019-02-26T08:50:10.022Z,83.37
2019-02-26T08:52:41.102Z,82.47
2019-02-26T08:55:10.730Z,82.79
2019-02-26T08:57:38.738Z,81.22
2019-02-26T09:00:11.399Z,81.68
2019-02-26T09:02:38.050Z,82.21
2019-02-26T09:05:07.641Z,80.35
2019-02-26T09:07:34.838Z,80.58
2019-02-26T09:10:01.364Z,80.51
2019-02-26T09:12:27.895Z,80.17
2019-02-26T09:14:54.577Z,80.17
2019-02-26T09:17:23.161Z,80.34
2019-02-26T09:19:50.914Z,80.83
2019-02-26T09:22:19.302Z,81.44
2019-02-26T09:24:46.841Z,81.08
2019-02-26T09:27:13.230Z,81.18
2019-02-26T09:29:41.893Z,81.18
2019-02-26T09:32:09.279Z,80.39
2019-02-26T09:34:39.345Z,80.61
2019-02-26T09:37:05.779Z,80.81
2019-02-26T09:39:36.002Z,80.96
2019-02-26T09:42:02.248Z,80.27
2019-02-26T09:44:30.953Z,80.51
2019-02-26T09:46:58.282Z,79.16
2019-02-26T09:49:26.272Z,77.28
2019-02-26T09:51:56.731Z,78.38
2019-02-26T09:54:22.635Z,78.19
2019-02-26T09:56:49.720Z,77.95
2019-02-26T09:59:16.610Z,77.55
2019-02-26T10:01:43.093Z,77.13
2019-02-26T10:04:09.344Z,78.80
2019-02-26T10:06:37.896Z,78.61
2019-02-26T10:09:04.907Z,78.76
2019-02-26T10:11:31.150Z,78.96
2019-02-26T10:13:57.954Z,78.69
2019-02-26T10:16:25.724Z,78.87
2019-02-26T10:18:54.441Z,79.63
2019-02-26T10:21:20.761Z,80.21
2019-02-26T10:23:51.441Z,80.10
2019-02-26T10:26:15.611Z,80.11
2019-02-26T10:28:43.409Z,80.36
2019-02-26T10:31:10.530Z,79.43
2019-02-26T10:33:40.184Z,78.55
2019-02-26T10:36:07.919Z,79.19
2019-02-26T10:38:36.008Z,79.25
2019-02-26T10:41:02.053Z,79.90
2019-02-26T10:43:28.530Z,80.01
2019-02-26T10:45:55.210Z,80.54
2019-02-26T10:48:27.911Z,80.70
2019-02-26T10:50:54.470Z,81.81
2019-02-26T10:53:22.550Z,81.44
2019-02-26T10:55:49.258Z,81.84
2019-02-26T10:58:15.527Z,82.28
2019-02-26T11:00:43.102Z,83.02
2019-02-26T11:03:12.095Z,82.05
2019-02-26T11:05:39.853Z,81.96
2019-02-26T11:08:09.145Z,81.59
2019-02-26T11:10:34.092Z,80.95
2019-02-26T11:13:00.793Z,81.21
2019-02-26T11:15:30.259Z,81.56
2019-02-26T11:17:55.937Z,81.52
2019-02-26T11:20:25.508Z,81.38
2019-02-26T11:22:52.074Z,81.38
2019-02-26T11:25:21.448Z,81.67
2019-02-26T11:27:48.409Z,81.56
2019-02-26T11:30:20.489Z,82.79
2019-02-26T11:32:47.060Z,82.31
2019-02-26T11:35:17.072Z,82.00
2019-02-26T11:37:45.396Z,81.73
2019-02-26T11:40:17.298Z,81.58
2019-02-26T11:42:46.579Z,82.09
2019-02-26T11:45:20.833Z,80.59
2019-02-26T11:47:47.477Z,77.91
2019-02-26T11:50:19.174Z,78.21
2019-02-26T11:52:45.673Z,78.84
2019-02-26T11:55:13.806Z,78.44
2019-02-26T11:57:42.335Z,78.62
2019-02-26T12:00:24.270Z,78.13
2019-02-26T12:02:43.648Z,78.35
2019-02-26T12:05:10.797Z,78.33
2019-02-26T12:07:37.389Z,77.93
2019-02-26T12:10:10.391Z,76.06
2019-02-26T12:12:36.946Z,75.28
2019-02-26T12:15:12.337Z,74.58
2019-02-26T12:17:37.800Z,74.78
2019-02-26T12:20:07.357Z,73.04
2019-02-26T12:22:33.710Z,72.97
2019-02-26T12:25:02.704Z,74.66
2019-02-26T12:27:28.345Z,73.06
2019-02-26T12:29:55.118Z,72.20
2019-02-26T12:32:22.370Z,72.62
2019-02-26T12:34:51.479Z,71.84
2019-02-26T12:37:18.228Z,71.33
2019-02-26T12:39:47.461Z,70.07
2019-02-26T12:42:13.991Z,68.15
2019-02-26T12:44:44.820Z,67.63
2019-02-26T12:47:11.523Z,65.51
2019-02-26T12:49:39.128Z,66.15
2019-02-26T12:52:05.841Z,66.73
2019-02-26T12:54:33.652Z,66.27
2019-02-26T12:57:04.040Z,65.59
2019-02-26T12:59:29.031Z,65.76
2019-02-26T13:01:55.849Z,66.76
2019-02-26T13:04:24.912Z,66.93
2019-02-26T13:06:52.032Z,65.75
2019-02-26T13:09:18.709Z,66.02
2019-02-26T13:12:00.725Z,66.70
2019-02-26T13:14:13.332Z,68.25
2019-02-26T13:16:39.758Z,69.29
2019-02-26T13:19:06.075Z,68.37
2019-02-26T13:21:32.556Z,69.75
2019-02-26T13:24:11.465Z,69.12
2019-02-26T13:26:27.401Z,69.02
2019-02-26T13:28:56.183Z,68.02
2019-02-26T13:31:22.742Z,69.40
2019-02-26T13:33:49.445Z,68.96
2019-02-26T13:36:16.553Z,70.15
2019-02-26T13:38:48.178Z,70.33
2019-02-26T13:41:29.009Z,70.95
2019-02-26T13:43:39.342Z,70.44
2019-02-26T13:46:05.970Z,70.29
2019-02-26T13:48:32.481Z,70.37
2019-02-26T13:50:58.896Z,69.82
2019-02-26T13:53:25.957Z,69.57
2019-02-26T13:55:52.484Z,69.31
2019-02-26T13:58:19.381Z,69.41
2019-02-26T14:00:46.951Z,68.90
2019-02-26T14:03:13.766Z,68.41
2019-02-26T14:05:39.983Z,68.22
2019-02-26T14:08:06.658Z,69.14
2019-02-26T14:10:32.992Z,69.08
2019-02-26T14:12:59.840Z,68.83
2019-02-26T14:15:27.257Z,68.41
2019-02-26T14:17:53.691Z,68.86
2019-02-26T14:20:20.198Z,68.86
2019-02-26T14:22:46.687Z,69.14
2019-02-26T14:25:13.155Z,69.56
2019-02-26T14:27:39.487Z,69.05
2019-02-26T14:30:14.121Z,68.67
2019-02-26T14:32:40.422Z,68.88
2019-02-26T14:35:12.603Z,69.41
2019-02-26T14:37:39.266Z,68.73
2019-02-26T14:40:08.760Z,68.31
2019-02-26T14:42:35.257Z,68.88
2019-02-26T14:45:01.802Z,69.08
2019-02-26T14:47:30.015Z,68.65
2019-02-26T14:49:57.103Z,68.84
2019-02-26T14:52:23.533Z,68.75
2019-02-26T14:54:49.784Z,68.50
2019-02-26T14:57:16.232Z,68.90
2019-02-26T14:59:42.986Z,69.45
2019-02-26T15:02:09.342Z,69.17
2019-02-26T15:04:35.633Z,69.92
2019-02-26T15:07:01.962Z,69.66
2019-02-26T15:09:28.581Z,69.87
2019-02-26T15:11:55.066Z,69.60
2019-02-26T15:14:21.360Z,69.20
2019-02-26T15:16:47.703Z,70.31
2019-02-26T15:19:14.113Z,71.18
2019-02-26T15:21:40.580Z,71.97
2019-02-26T15:24:07.222Z,71.08
2019-02-26T15:26:33.700Z,71.27
2019-02-26T15:29:00.346Z,70.82
2019-02-26T15:31:26.772Z,70.34
2019-02-26T15:33:52.950Z,69.91
2019-02-26T15:36:19.210Z,69.74
2019-02-26T15:38:46.429Z,70.15
2019-02-26T15:41:13.141Z,70.62
2019-02-26T15:43:39.453Z,70.89
2019-02-26T15:46:07.653Z,70.66
2019-02-26T15:48:36.453Z,71.05
2019-02-26T15:51:02.812Z,70.95
2019-02-26T15:53:29.337Z,71.21
2019-02-26T15:55:59.207Z,71.72
2019-02-26T15:58:23.764Z,72.16
2019-02-26T16:00:50.557Z,71.57
2019-02-26T16:03:21.729Z,71.76
2019-02-26T16:05:48.526Z,72.40
2019-02-26T16:08:15.008Z,72.85
2019-02-26T16:14:15.773Z,73.33
2019-02-26T16:16:42.089Z,72.75
2019-02-26T16:19:08.677Z,72.37
2019-02-26T16:21:35.456Z,73.43
2019-02-26T16:24:01.987Z,73.56
2019-02-26T16:26:28.289Z,73.27
2019-02-26T16:28:56.415Z,74.07
2019-02-26T16:31:22.855Z,73.58
2019-02-26T16:33:49.253Z,73.27
2019-02-26T16:36:16.134Z,73.17
2019-02-26T16:38:42.426Z,73.83
2019-02-26T16:41:09.074Z,73.76
2019-02-26T16:43:35.492Z,72.85
2019-02-26T16:46:02.220Z,72.60
2019-02-26T16:48:28.654Z,71.95
2019-02-26T16:50:55.521Z,72.56
2019-02-26T16:53:22.367Z,73.17
2019-02-26T16:55:49.633Z,73.54
2019-02-26T16:58:16.183Z,73.69
2019-02-26T17:00:48.824Z,73.65
2019-02-26T17:03:15.419Z,74.00
2019-02-26T17:05:42.113Z,74.01
2019-02-26T17:08:08.716Z,74.29
2019-02-26T17:10:35.382Z,75.16
2019-02-26T17:13:03.032Z,75.88
2019-02-26T17:15:34.086Z,77.09
2019-02-26T17:18:00.399Z,76.71
2019-02-26T17:20:27.604Z,76.75
2019-02-26T17:22:55.409Z,76.04
2019-02-26T17:25:22.251Z,76.11
2019-02-26T17:27:48.866Z,76.51
2019-02-26T17:30:16.717Z,76.26
2019-02-26T17:32:43.351Z,76.24
2019-02-26T17:35:10.947Z,76.33
2019-02-26T17:37:41.161Z,75.75
2019-02-26T17:40:12.006Z,75.93
2019-02-26T17:42:38.452Z,76.36
2019-02-26T17:45:10.902Z,76.74
2019-02-26T17:47:37.767Z,77.42
2019-02-26T17:50:09.657Z,77.81
2019-02-26T17:52:36.081Z,77.56
2019-02-26T17:55:05.077Z,77.33
2019-02-26T17:57:34.660Z,77.67
2019-02-26T18:00:00.481Z,78.00
2019-02-26T18:02:27.561Z,77.85
2019-02-26T18:04:54.920Z,77.77
2019-02-26T18:07:21.385Z,78.23
2019-02-26T18:12:55.772Z,78.74
2019-02-26T18:15:22.383Z,79.08
2019-02-26T18:17:48.535Z,79.36
2019-02-26T18:20:17.988Z,79.23
2019-02-26T18:22:44.591Z,79.31
2019-02-26T18:25:16.459Z,79.19
2019-02-26T18:27:42.658Z,79.27
2019-02-26T18:30:12.863Z,80.15
2019-02-26T18:32:39.024Z,79.75
2019-02-26T18:35:05.254Z,80.25
2019-02-26T18:37:31.693Z,80.26
2019-02-26T18:39:57.883Z,80.25
2019-02-26T18:42:23.982Z,80.82
2019-02-26T18:44:51.872Z,80.77
2019-02-26T18:47:18.254Z,79.60
2019-02-26T18:49:44.407Z,79.23
2019-02-26T18:52:10.623Z,79.74
2019-02-26T18:54:36.810Z,79.81
2019-02-26T18:57:02.946Z,79.83
2019-02-26T18:59:29.352Z,79.76
2019-02-26T19:01:55.474Z,79.54
2019-02-26T19:04:21.520Z,79.38
2019-02-26T19:06:47.544Z,79.56
2019-02-26T19:09:15.263Z,79.52
2019-02-26T19:11:41.414Z,80.02
2019-02-26T19:14:09.238Z,79.91
2019-02-26T19:16:35.503Z,79.54
2019-02-26T19:19:01.635Z,79.71
2019-02-26T19:21:27.767Z,80.06
2019-02-26T19:23:53.884Z,80.80
2019-02-26T19:26:20.010Z,81.26
2019-02-26T19:28:46.043Z,81.52
2019-02-26T19:31:12.199Z,81.26
2019-02-26T19:33:38.320Z,81.54
2019-02-26T19:36:04.438Z,81.52
2019-02-26T19:38:30.781Z,81.64
2019-02-26T19:41:00.685Z,81.57
2019-02-26T19:43:28.703Z,81.55
2019-02-26T19:45:54.737Z,81.43
2019-02-26T19:48:20.816Z,81.18
2019-02-26T19:50:48.769Z,80.99
2019-02-26T19:53:15.189Z,80.93
2019-02-26T19:55:44.148Z,81.01
2019-02-26T19:58:10.182Z,81.18
2019-02-26T20:00:36.219Z,80.93
2019-02-26T20:03:04.874Z,80.94
2019-02-26T20:05:30.261Z,80.94
2019-02-26T20:07:56.287Z,81.26
2019-02-26T20:10:22.293Z,80.81
2019-02-26T20:12:50.348Z,81.07
2019-02-26T20:15:16.360Z,80.93
2019-02-26T20:17:42.354Z,81.12
2019-02-26T20:20:10.806Z,81.33
2019-02-26T20:22:37.025Z,81.14
2019-02-26T20:25:09.466Z,81.12
2019-02-26T20:27:35.948Z,81.18
2019-02-26T20:30:04.611Z,81.34
2019-02-26T20:32:31.595Z,80.83
2019-02-26T20:34:57.828Z,80.66
2019-02-26T20:37:24.424Z,82.32
2019-02-26T20:39:51.285Z,80.80
2019-02-26T20:42:17.672Z,79.70
2019-02-26T20:44:45.488Z,79.33
2019-02-26T20:47:11.672Z,79.28
2019-02-26T20:49:37.830Z,79.34
2019-02-26T20:52:04.049Z,78.62
2019-02-26T20:54:30.104Z,78.21
2019-02-26T20:56:56.219Z,78.61
2019-02-26T20:59:22.618Z,79.00
2019-02-26T21:01:49.568Z,78.72
2019-02-26T21:04:15.865Z,78.42
2019-02-26T21:06:41.949Z,78.23
2019-02-26T21:09:08.087Z,78.33
2019-02-26T21:11:34.184Z,78.16
2019-02-26T21:14:00.224Z,78.74
2019-02-26T21:16:26.449Z,78.94
2019-02-26T21:18:52.578Z,78.60
2019-02-26T21:21:18.636Z,78.06
2019-02-26T21:23:44.960Z,78.20
2019-02-26T21:26:10.997Z,78.53
2019-02-26T21:28:37.284Z,78.67
2019-02-26T21:31:03.446Z,77.61
2019-02-26T21:33:30.804Z,77.99
2019-02-26T21:35:57.570Z,78.80
2019-02-26T21:38:23.631Z,79.31
2019-02-26T21:40:51.978Z,79.52
2019-02-26T21:43:17.746Z,79.70
2019-02-26T21:45:44.537Z,79.84
2019-02-26T21:48:10.866Z,80.16
2019-02-26T21:50:37.049Z,80.56
2019-02-26T21:53:03.161Z,80.54
2019-02-26T21:55:33.814Z,80.77
2019-02-26T21:57:57.800Z,80.77
2019-02-26T22:00:23.862Z,80.78
2019-02-26T22:02:52.426Z,81.06
2019-02-26T22:05:17.841Z,81.33
2019-02-26T22:07:44.010Z,81.20
2019-02-26T22:10:15.779Z,81.81
2019-02-26T22:12:41.937Z,81.98
2019-02-26T22:15:11.078Z,82.32
2019-02-26T22:17:37.646Z,82.89
2019-02-26T22:20:09.283Z,83.63
2019-02-26T22:22:35.152Z,84.66
2019-02-26T22:25:09.225Z,86.03
2019-02-26T22:27:29.174Z,85.59
2019-02-26T22:29:55.222Z,86.01
2019-02-26T22:32:21.351Z,87.71
2019-02-26T22:34:47.485Z,88.14
2019-02-26T22:37:13.494Z,89.12
2019-02-26T22:39:39.530Z,89.62
2019-02-26T22:42:07.899Z,89.72
2019-02-26T22:44:33.600Z,90.22
2019-02-26T22:46:59.740Z,90.68
2019-02-26T22:49:25.774Z,90.36
2019-02-26T22:51:51.930Z,91.01
2019-02-26T22:54:18.009Z,91.10
2019-02-26T22:56:44.310Z,92.35
2019-02-26T23:02:23.099Z,93.19
2019-02-26T23:04:52.546Z,92.94
2019-02-26T23:07:17.196Z,93.02
2019-02-26T23:09:43.764Z,92.41
2019-02-26T23:12:09.811Z,92.78
2019-02-26T23:14:38.646Z,92.16
2019-02-26T23:17:05.254Z,92.32
2019-02-26T23:19:31.369Z,93.14
2019-02-26T23:21:57.410Z,93.30
2019-02-26T23:24:27.743Z,93.57
2019-02-26T23:26:51.640Z,94.19
2019-02-26T23:29:17.791Z,94.06
2019-02-26T23:31:44.222Z,93.48
2019-02-26T23:34:10.284Z,94.09
2019-02-26T23:36:36.375Z,94.35
2019-02-26T23:39:05.146Z,93.65
2019-02-26T23:41:33.080Z,93.50
2019-02-26T23:43:59.389Z,93.70
2019-02-26T23:46:29.518Z,93.96
2019-02-26T23:48:53.604Z,93.30
2019-02-26T23:51:21.138Z,93.67
2019-02-26T23:53:47.444Z,94.32
2019-02-26T23:56:13.510Z,93.67
2019-02-26T23:58:39.662Z,94.41
